Time;durP1;ratioP1;P1;durP2;ratioP2;P2;SDS_P1;SDS_P2;PMS_P1;PMS_P2;Temp;Humidity;BMP_temperature;BMP_pressure;BME280_temperature;BME280_humidity;BME280_pressure;Samples;Min_cycle;Max_cycle;Signal;HPM_P1;HPM_P2
2022/04/04 00:02:07;;;;;;;31.90;29.60;;;-0.40;90.40;;;;;;5091754;28;20226;-72
2022/04/04 00:04:34;;;;;;;31.90;29.55;;;-0.40;91.90;;;;;;5091131;28;20279;-72
2022/04/04 00:07:02;;;;;;;29.90;27.42;;;-0.40;92.00;;;;;;5091807;28;20283;-72
2022/04/04 00:09:31;;;;;;;33.65;30.17;;;-0.40;91.90;;;;;;5090995;28;20688;-73
2022/04/04 00:11:58;;;;;;;30.40;28.10;;;-0.40;91.90;;;;;;5091728;28;20218;-73
2022/04/04 00:14:25;;;;;;;31.08;28.70;;;-0.40;92.00;;;;;;5091787;28;20187;-72
2022/04/04 00:16:52;;;;;;;29.70;27.60;;;-0.50;91.60;;;;;;5091479;28;20198;-72
2022/04/04 00:19:19;;;;;;;30.95;28.55;;;-0.40;91.20;;;;;;5091177;28;20204;-72
2022/04/04 00:21:46;;;;;;;29.85;27.75;;;-0.50;90.80;;;;;;5091651;28;20208;-72
2022/04/04 00:24:13;;;;;;;31.25;29.05;;;-0.40;90.70;;;;;;5091609;28;20227;-72
2022/04/04 00:26:41;;;;;;;31.67;29.17;;;-0.50;90.80;;;;;;5091664;28;20286;-72
2022/04/04 00:29:07;;;;;;;30.88;28.50;;;-0.50;92.00;;;;;;5093741;28;20412;-72
2022/04/04 00:31:34;;;;;;;30.75;28.45;;;-0.40;91.00;;;;;;5095166;28;20561;-72
2022/04/04 00:34:01;;;;;;;31.05;28.75;;;-0.40;90.40;;;;;;5095187;28;20775;-72
2022/04/04 00:36:28;;;;;;;29.40;27.30;;;-0.50;90.20;;;;;;5094772;28;20755;-72
2022/04/04 00:38:55;;;;;;;31.55;29.25;;;-0.50;90.20;;;;;;5095070;28;20201;-72
2022/04/04 00:41:22;;;;;;;30.98;28.77;;;-0.50;90.20;;;;;;5094641;28;20195;-72
2022/04/04 00:43:53;;;;;;;254.20;50.15;;;-0.60;91.10;;;;;;5094815;28;20245;-72
2022/04/04 00:46:21;;;;;;;294.40;56.10;;;-0.60;93.50;;;;;;5094930;28;20272;-72
2022/04/04 00:48:48;;;;;;;30.80;27.95;;;-0.60;93.20;;;;;;5094836;28;20257;-72
2022/04/04 00:51:15;;;;;;;30.25;27.98;;;-0.50;94.40;;;;;;5094436;28;20205;-72
2022/04/04 00:53:42;;;;;;;31.20;28.83;;;-0.60;95.70;;;;;;5094767;28;20258;-72
2022/04/04 00:56:11;;;;;;;30.50;28.20;;;-0.60;94.00;;;;;;5094720;28;20195;-72
2022/04/04 00:58:39;;;;;;;29.52;27.33;;;-0.60;93.20;;;;;;5094577;28;20195;-72
2022/04/04 01:01:08;;;;;;;30.25;27.95;;;-0.60;93.00;;;;;;5094344;28;20195;-72
2022/04/04 01:03:35;;;;;;;31.38;28.95;;;-0.60;92.20;;;;;;5094474;28;20779;-72
2022/04/04 01:06:03;;;;;;;158.07;39.03;;;-0.60;92.10;;;;;;5094637;28;20225;-72
2022/04/04 01:08:30;;;;;;;333.98;62.72;;;-0.60;92.20;;;;;;5094484;28;20282;-72
2022/04/04 01:10:57;;;;;;;312.63;57.08;;;-0.60;95.40;;;;;;5093926;28;20668;-72
2022/04/04 01:13:24;;;;;;;30.90;28.40;;;-0.50;96.20;;;;;;5094477;28;20626;-72
2022/04/04 01:15:50;;;;;;;30.80;28.40;;;-0.50;94.70;;;;;;5094366;28;20195;-72
2022/04/04 01:18:19;;;;;;;29.90;27.75;;;-0.60;93.50;;;;;;5094442;28;20199;-72
2022/04/04 01:20:45;;;;;;;29.35;27.17;;;-0.60;92.50;;;;;;5093759;28;20298;-72
2022/04/04 01:23:14;;;;;;;102.45;35.05;;;-0.60;92.10;;;;;;5094446;28;20211;-72
2022/04/04 01:25:43;;;;;;;29.60;27.02;;;-0.60;93.00;;;;;;5093919;28;20219;-72
2022/04/04 01:28:09;;;;;;;42.08;29.65;;;-0.50;94.80;;;;;;5094180;28;20208;-72
2022/04/04 01:30:36;;;;;;;29.90;27.70;;;-0.50;93.30;;;;;;5093581;28;20191;-72
2022/04/04 01:33:04;;;;;;;30.90;28.58;;;-0.50;96.20;;;;;;5094206;28;20219;-72
2022/04/04 01:35:31;;;;;;;29.40;27.08;;;-0.50;94.40;;;;;;5094220;28;20560;-72
2022/04/04 01:37:58;;;;;;;29.48;27.27;;;-0.50;93.00;;;;;;5093999;28;20296;-72
2022/04/04 01:40:25;;;;;;;28.83;26.92;;;-0.50;91.50;;;;;;5093443;28;20199;-72
2022/04/04 01:42:55;;;;;;;29.10;26.80;;;-0.50;90.60;;;;;;5093737;28;20217;-72
2022/04/04 01:48:05;;;;;;;29.85;27.60;;;-0.50;94.50;;;;;;5093603;28;20256;-72
2022/04/04 01:50:32;;;;;;;29.20;27.05;;;-0.50;93.90;;;;;;5093387;28;20199;-72
2022/04/04 01:53:25;;;;;;;29.90;27.70;;;-0.50;92.40;;;;;;5093624;28;20223;-72
2022/04/04 01:55:46;;;;;;;30.35;28.15;;;-0.50;91.20;;;;;;5093751;28;20259;-72
2022/04/04 01:58:15;;;;;;;29.98;27.67;;;-0.60;90.70;;;;;;5093575;28;20577;-72
2022/04/04 02:00:42;;;;;;;29.73;27.40;;;-0.60;89.70;;;;;;5093219;28;20233;-72
2022/04/04 02:03:09;;;;;;;30.90;28.50;;;-0.60;89.80;;;;;;5092961;28;20219;-72
2022/04/04 02:05:36;;;;;;;28.88;26.88;;;-0.70;89.80;;;;;;5093481;28;20211;-72
2022/04/04 02:08:03;;;;;;;29.48;27.40;;;-0.80;89.80;;;;;;5093412;28;20199;-72
2022/04/04 02:10:30;;;;;;;29.85;27.70;;;-0.80;89.50;;;;;;5092815;28;20202;-72
2022/04/04 02:12:57;;;;;;;30.95;28.60;;;-0.80;89.40;;;;;;5093298;28;20669;-73
2022/04/04 02:15:25;;;;;;;29.55;27.42;;;-0.80;89.20;;;;;;5093301;28;20279;-70
2022/04/04 02:17:52;;;;;;;31.95;29.50;;;-0.90;89.20;;;;;;5093000;28;20199;-70
2022/04/04 02:20:19;;;;;;;30.40;27.95;;;-0.90;89.20;;;;;;5092669;28;20301;-70
2022/04/04 02:22:46;;;;;;;29.77;27.48;;;-0.90;89.20;;;;;;5093131;28;20248;-70
2022/04/04 02:25:13;;;;;;;29.70;27.20;;;-0.90;89.00;;;;;;5093089;28;20314;-70
2022/04/04 02:27:40;;;;;;;31.00;28.50;;;-1.00;89.10;;;;;;5092985;28;20289;-70
2022/04/04 02:30:08;;;;;;;29.70;27.55;;;-0.90;89.10;;;;;;5092417;28;20192;-70
2022/04/04 02:32:36;;;;;;;30.73;28.63;;;-1.00;88.90;;;;;;5092862;28;20218;-70
2022/04/04 02:35:04;;;;;;;29.15;27.08;;;-1.00;88.90;;;;;;5093024;28;20195;-70
2022/04/04 02:37:31;;;;;;;30.10;28.10;;;-1.10;89.10;;;;;;5092800;28;20744;-70
2022/04/04 02:39:57;;;;;;;30.80;28.50;;;-1.10;89.20;;;;;;5092657;28;20198;-70
2022/04/04 02:42:24;;;;;;;30.33;28.25;;;-1.10;89.10;;;;;;5092686;28;20251;-70
2022/04/04 02:44:53;;;;;;;30.05;27.65;;;-1.10;89.60;;;;;;5092603;28;20313;-70
2022/04/04 02:47:20;;;;;;;30.52;28.33;;;-1.20;89.80;;;;;;5092684;28;20195;-70
2022/04/04 02:49:49;;;;;;;31.15;29.05;;;-1.10;90.00;;;;;;5092287;28;20198;-70
2022/04/04 02:52:16;;;;;;;31.00;28.73;;;-1.10;89.40;;;;;;5092400;28;20219;-72
2022/04/04 02:54:44;;;;;;;30.05;28.02;;;-1.10;89.10;;;;;;5092568;28;20202;-72
2022/04/04 02:57:09;;;;;;;30.67;28.33;;;-1.10;88.90;;;;;;5092549;28;20559;-72
2022/04/04 02:59:37;;;;;;;30.90;28.60;;;-1.20;89.10;;;;;;5091938;28;20198;-72
2022/04/04 03:02:04;;;;;;;29.63;27.50;;;-1.20;89.10;;;;;;5092495;28;20452;-72
2022/04/04 03:04:31;;;;;;;30.98;28.77;;;-1.30;89.10;;;;;;5091939;28;20205;-72
2022/04/04 03:07:01;;;;;;;32.38;29.95;;;-1.30;89.20;;;;;;5092339;28;20226;-71
2022/04/04 03:09:28;;;;;;;68.55;31.48;;;-1.20;89.40;;;;;;5091586;28;20207;-72
2022/04/04 03:11:54;;;;;;;31.33;28.33;;;-1.20;91.10;;;;;;5092178;28;20206;-72
2022/04/04 03:14:21;;;;;;;33.92;30.92;;;-1.20;92.90;;;;;;5092476;28;20733;-72
2022/04/04 03:16:48;;;;;;;31.00;28.77;;;-1.10;95.00;;;;;;5092435;28;20205;-72
2022/04/04 03:19:15;;;;;;;29.45;27.45;;;-1.10;93.10;;;;;;5091699;28;20192;-72
2022/04/04 03:21:42;;;;;;;30.52;28.27;;;-1.10;91.40;;;;;;5092184;28;20298;-72
2022/04/04 03:24:10;;;;;;;30.90;28.70;;;-1.10;90.70;;;;;;5092164;28;20214;-72
2022/04/04 03:26:37;;;;;;;30.92;28.63;;;-1.20;90.00;;;;;;5091986;28;20254;-72
2022/04/04 03:29:04;;;;;;;36.03;28.85;;;-1.20;89.70;;;;;;5091861;28;20663;-72
2022/04/04 03:31:31;;;;;;;42.10;30.40;;;-1.20;90.90;;;;;;5091838;28;20205;-72
2022/04/04 03:33:59;;;;;;;357.52;64.20;;;-1.20;93.70;;;;;;5092037;28;20313;-72
2022/04/04 03:36:26;;;;;;;751.40;133.75;;;-1.20;95.80;;;;;;5092129;28;20222;-72
2022/04/04 03:38:53;;;;;;;29.10;27.10;;;-1.10;97.50;;;;;;5092019;28;20576;-72
2022/04/04 03:41:21;;;;;;;30.50;28.27;;;-1.10;96.40;;;;;;5091708;28;20215;-72
2022/04/04 03:43:48;;;;;;;30.80;28.77;;;-1.20;94.20;;;;;;5092067;28;20313;-72
2022/04/04 03:46:15;;;;;;;30.00;27.88;;;-1.20;92.50;;;;;;5092025;28;20338;-72
2022/04/04 03:48:42;;;;;;;29.45;27.42;;;-1.30;91.90;;;;;;5092104;28;20199;-72
2022/04/04 03:51:09;;;;;;;30.42;27.85;;;-1.30;91.00;;;;;;5091401;28;20606;-72
2022/04/04 03:53:36;;;;;;;57.45;30.80;;;-1.20;91.80;;;;;;5091839;28;20225;-72
2022/04/04 03:56:03;;;;;;;30.52;28.42;;;-1.20;92.70;;;;;;5092077;28;20206;-72
2022/04/04 03:58:31;;;;;;;30.75;28.65;;;-1.10;91.50;;;;;;5091947;28;20195;-72
2022/04/04 04:00:58;;;;;;;30.48;28.40;;;-1.10;90.70;;;;;;5091524;28;20560;-72
2022/04/04 04:03:25;;;;;;;28.90;26.90;;;-1.10;91.50;;;;;;5092807;28;20306;-72
2022/04/04 04:06:11;;;;;;;29.67;27.65;;;-1.20;90.20;;;;;;5095652;28;20230;-73
2022/04/04 04:08:38;;;;;;;30.92;28.70;;;-1.20;89.40;;;;;;5095427;28;20293;-73
2022/04/04 04:11:05;;;;;;;47.85;29.48;;;-1.10;88.60;;;;;;5095317;28;20656;-72
2022/04/04 04:13:33;;;;;;;73.80;34.20;;;-1.20;88.50;;;;;;5095505;28;20213;-72
2022/04/04 04:16:00;;;;;;;33.38;30.77;;;-1.20;89.20;;;;;;5095598;28;20192;-72
2022/04/04 04:18:27;;;;;;;29.88;27.85;;;-1.20;89.50;;;;;;5095324;28;20198;-73
2022/04/04 04:20:54;;;;;;;385.88;61.40;;;-1.20;90.50;;;;;;5094763;28;20211;-73
2022/04/04 04:23:21;;;;;;;31.27;28.88;;;-1.20;92.60;;;;;;5095397;28;20219;-73
2022/04/04 04:25:49;;;;;;;30.85;28.70;;;-1.10;91.80;;;;;;5095413;28;20711;-72
2022/04/04 04:28:17;;;;;;;30.77;28.67;;;-1.10;89.30;;;;;;5095377;28;20279;-72
2022/04/04 04:30:45;;;;;;;31.33;29.13;;;-1.10;88.60;;;;;;5094863;28;20647;-72
2022/04/04 04:33:12;;;;;;;30.25;28.13;;;-1.20;87.50;;;;;;5095295;28;20215;-72
2022/04/04 04:35:40;;;;;;;32.25;30.13;;;-1.20;88.30;;;;;;5095188;28;20218;-72
2022/04/04 04:38:07;;;;;;;294.15;52.25;;;-1.20;87.70;;;;;;5095242;28;20203;-72
2022/04/04 04:40:34;;;;;;;32.53;30.15;;;-1.30;90.90;;;;;;5094634;28;20201;-72
2022/04/04 04:43:02;;;;;;;29.00;27.10;;;-1.30;89.00;;;;;;5095107;28;20594;-72
2022/04/04 04:45:29;;;;;;;31.77;29.33;;;-1.30;88.00;;;;;;5094987;28;20195;-72
2022/04/04 04:47:57;;;;;;;31.50;29.30;;;-1.40;88.00;;;;;;5094760;28;20195;-72
2022/04/04 04:50:25;;;;;;;31.17;28.88;;;-1.40;87.50;;;;;;5094407;28;20575;-72
2022/04/04 04:52:53;;;;;;;45.33;31.27;;;-1.40;86.80;;;;;;5094758;28;20222;-72
2022/04/04 04:55:21;;;;;;;30.50;28.30;;;-1.40;86.70;;;;;;5095031;28;20674;-72
2022/04/04 04:57:50;;;;;;;1893.95;331.38;;;-1.50;88.00;;;;;;5094774;28;20206;-72
2022/04/04 05:00:19;;;;;;;1625.65;368.15;;;-1.40;88.70;;;;;;5094140;28;20199;-72
2022/04/04 05:02:47;;;;;;;633.88;97.90;;;-1.50;92.30;;;;;;5094700;28;20215;-73
2022/04/04 05:05:15;;;;;;;29.73;27.60;;;-1.50;96.10;;;;;;5094220;28;20207;-72
2022/04/04 05:07:42;;;;;;;30.75;28.40;;;-1.50;93.20;;;;;;5094619;28;20229;-73
2022/04/04 05:10:10;;;;;;;30.63;28.35;;;-1.50;91.20;;;;;;5093848;28;20225;-72
2022/04/04 05:12:36;;;;;;;31.08;29.08;;;-1.50;89.80;;;;;;5094320;28;20314;-72
2022/04/04 05:15:04;;;;;;;29.77;27.67;;;-1.60;89.00;;;;;;5093929;28;20281;-72
2022/04/04 05:17:30;;;;;;;181.95;42.97;;;-1.40;88.60;;;;;;5094327;28;20206;-72
2022/04/04 05:19:57;;;;;;;30.30;28.20;;;-1.40;90.90;;;;;;5093909;28;20213;-72
2022/04/04 05:22:26;;;;;;;32.38;29.77;;;-1.30;89.60;;;;;;5094287;28;20313;-72
2022/04/04 05:24:53;;;;;;;30.90;28.80;;;-1.30;90.40;;;;;;5094335;28;20194;-72
2022/04/04 05:27:19;;;;;;;32.70;30.10;;;-1.30;89.40;;;;;;5093921;28;20222;-73
2022/04/04 05:29:46;;;;;;;32.67;30.40;;;-1.30;87.70;;;;;;5093697;28;20197;-72
2022/04/04 05:32:13;;;;;;;30.30;28.20;;;-1.30;86.70;;;;;;5094084;28;20310;-72
2022/04/04 05:34:40;;;;;;;32.10;29.80;;;-1.30;86.00;;;;;;5094175;28;20196;-73
2022/04/04 05:37:07;;;;;;;32.25;29.38;;;-1.30;85.50;;;;;;5094073;28;20195;-73
2022/04/04 05:39:36;;;;;;;31.90;29.67;;;-1.30;86.50;;;;;;5093389;28;20722;-73
2022/04/04 05:42:03;;;;;;;33.47;30.02;;;-1.20;85.80;;;;;;5093705;28;20644;-73
2022/04/04 05:44:32;;;;;;;30.02;27.92;;;-1.20;86.30;;;;;;5093811;28;20305;-73
2022/04/04 05:46:59;;;;;;;31.65;29.27;;;-1.10;89.00;;;;;;5093896;28;20222;-72
2022/04/04 05:49:26;;;;;;;32.08;29.80;;;-1.00;91.00;;;;;;5093291;28;20728;-73
2022/04/04 05:51:53;;;;;;;32.85;30.63;;;-1.00;88.30;;;;;;5093982;28;20191;-72
2022/04/04 05:54:20;;;;;;;29.67;27.42;;;-0.80;87.10;;;;;;5093555;28;20203;-72
2022/04/04 05:56:48;;;;;;;31.95;29.50;;;-0.80;85.40;;;;;;5093659;28;20205;-72
2022/04/04 05:59:15;;;;;;;29.52;27.60;;;-0.80;84.40;;;;;;5093061;28;20203;-73
2022/04/04 06:01:42;;;;;;;32.03;29.90;;;-0.70;83.70;;;;;;5093687;28;20195;-72
2022/04/04 06:04:09;;;;;;;33.17;30.80;;;-0.60;88.30;;;;;;5093242;28;20225;-72
2022/04/04 06:06:36;;;;;;;29.17;27.00;;;-0.50;84.90;;;;;;5093470;28;20222;-73
2022/04/04 06:09:03;;;;;;;32.88;30.48;;;-0.40;83.00;;;;;;5093069;28;20211;-72
2022/04/04 06:11:30;;;;;;;32.10;29.92;;;-0.30;81.50;;;;;;5093068;28;20266;-73
2022/04/04 06:13:59;;;;;;;32.65;30.40;;;-0.30;81.00;;;;;;5093274;28;20221;-73
2022/04/04 06:16:26;;;;;;;30.60;28.50;;;-0.20;80.60;;;;;;5093215;28;20205;-73
2022/04/04 06:18:53;;;;;;;32.80;30.70;;;-0.10;80.40;;;;;;5093664;28;20194;-73
2022/04/04 06:21:20;;;;;;;32.30;29.95;;;0.00;80.50;;;;;;5092460;28;20207;-72
2022/04/04 06:23:47;;;;;;;32.83;30.73;;;0.20;79.90;;;;;;5093035;28;20222;-73
2022/04/04 06:26:14;;;;;;;31.83;29.73;;;0.20;81.40;;;;;;5092324;28;20711;-72
2022/04/04 06:28:41;;;;;;;32.25;30.00;;;0.40;78.90;;;;;;5092918;28;20197;-72
2022/04/04 06:31:10;;;;;;;31.48;28.55;;;0.60;78.00;;;;;;5092416;28;20707;-72
2022/04/04 06:33:37;;;;;;;29.85;27.77;;;0.70;78.50;;;;;;5093058;28;20222;-73
2022/04/04 06:36:05;;;;;;;30.83;28.83;;;0.80;77.60;;;;;;5092747;28;20195;-72
2022/04/04 06:38:33;;;;;;;31.83;29.30;;;1.00;75.20;;;;;;5092680;28;20196;-73
2022/04/04 06:41:00;;;;;;;33.65;31.10;;;1.10;73.60;;;;;;5092261;28;20195;-73
2022/04/04 06:43:26;;;;;;;29.67;27.77;;;1.10;74.80;;;;;;5092958;28;20237;-73
2022/04/04 06:45:53;;;;;;;32.60;30.40;;;1.20;77.10;;;;;;5092703;28;20237;-71
2022/04/04 06:48:23;;;;;;;30.63;28.48;;;1.30;82.40;;;;;;5092601;28;20200;-73
2022/04/04 06:50:51;;;;;;;30.77;28.58;;;1.40;78.40;;;;;;5092367;28;20199;-70
2022/04/04 06:53:21;;;;;;;32.30;30.20;;;1.60;75.10;;;;;;5093653;28;20253;-71
2022/04/04 06:55:49;;;;;;;29.92;27.85;;;1.70;73.50;;;;;;5093482;28;20200;-70
2022/04/04 06:58:16;;;;;;;31.38;29.05;;;1.80;73.60;;;;;;5093454;28;20238;-73
2022/04/04 07:00:45;;;;;;;30.48;28.35;;;1.90;74.00;;;;;;5092619;28;20199;-71
2022/04/04 07:03:11;;;;;;;31.27;29.17;;;2.00;71.40;;;;;;5092481;28;20227;-70
2022/04/04 07:05:40;;;;;;;31.63;29.33;;;2.10;72.20;;;;;;5092159;28;20629;-71
2022/04/04 07:08:08;;;;;;;32.42;29.40;;;2.20;71.00;;;;;;5092415;28;20219;-71
2022/04/04 07:10:34;;;;;;;31.70;29.60;;;2.30;70.30;;;;;;5091624;28;20282;-72
2022/04/04 07:13:01;;;;;;;31.27;29.02;;;2.40;69.70;;;;;;5092363;28;20219;-71
2022/04/04 07:15:28;;;;;;;29.98;28.08;;;2.50;69.80;;;;;;5092192;28;20282;-71
2022/04/04 07:17:55;;;;;;;30.45;28.65;;;2.60;69.40;;;;;;5092203;28;20203;-71
2022/04/04 07:20:22;;;;;;;30.30;28.38;;;2.80;68.40;;;;;;5091627;28;20214;-71
2022/04/04 07:22:50;;;;;;;29.02;27.13;;;2.90;67.90;;;;;;5092214;28;20216;-71
2022/04/04 07:25:18;;;;;;;29.92;28.00;;;3.10;67.40;;;;;;5092153;28;20196;-71
2022/04/04 07:27:46;;;;;;;28.10;26.30;;;3.20;67.40;;;;;;5092162;28;20223;-72
2022/04/04 07:30:16;;;;;;;29.48;27.17;;;3.40;67.00;;;;;;5091481;28;20282;-72
2022/04/04 07:32:43;;;;;;;29.60;27.80;;;3.50;66.20;;;;;;5092046;28;20304;-71
2022/04/04 07:35:12;;;;;;;28.05;26.25;;;3.70;65.60;;;;;;5091983;28;20656;-72
2022/04/04 07:37:39;;;;;;;29.60;27.80;;;3.80;65.50;;;;;;5093947;28;20312;-72
2022/04/04 07:40:13;;;;;;;28.05;26.20;;;3.90;65.00;;;;;;5095671;28;20203;-71
2022/04/04 07:42:41;;;;;;;29.35;27.25;;;4.00;64.40;;;;;;5095998;28;20611;-71
2022/04/04 07:45:10;;;;;;;28.30;26.42;;;4.00;64.20;;;;;;5096216;28;20685;-72
2022/04/04 07:47:38;;;;;;;28.20;26.60;;;4.10;63.70;;;;;;5095997;28;20217;-71
2022/04/04 07:50:07;;;;;;;28.33;26.42;;;4.20;63.30;;;;;;5095742;28;20201;-72
2022/04/04 07:52:33;;;;;;;28.23;26.52;;;4.30;63.30;;;;;;5096856;28;20305;-72
2022/04/04 07:55:00;;;;;;;28.58;26.67;;;4.40;63.10;;;;;;5098799;28;20207;-71
2022/04/04 07:57:29;;;;;;;29.85;27.70;;;4.50;62.60;;;;;;5095791;28;20197;-71
2022/04/04 07:59:56;;;;;;;28.73;26.80;;;4.60;62.30;;;;;;5096050;28;20198;-71
2022/04/04 08:02:23;;;;;;;30.92;28.73;;;4.50;62.20;;;;;;5095783;28;20651;-71
2022/04/04 08:04:50;;;;;;;29.98;27.63;;;4.60;61.70;;;;;;5095570;28;20204;-72
2022/04/04 08:07:19;;;;;;;31.35;29.35;;;4.70;60.90;;;;;;5095635;28;20229;-71
2022/04/04 08:09:46;;;;;;;27.92;26.20;;;4.80;60.10;;;;;;5094966;28;20287;-71
2022/04/04 08:12:13;;;;;;;28.38;26.40;;;4.70;58.80;;;;;;5095664;28;20651;-71
2022/04/04 08:14:41;;;;;;;29.33;27.33;;;4.80;58.70;;;;;;5095840;28;20219;-72
2022/04/04 08:17:09;;;;;;;28.55;26.60;;;4.90;58.30;;;;;;5095824;28;20197;-72
2022/04/04 08:19:36;;;;;;;30.90;29.23;;;4.90;57.90;;;;;;5095134;28;20198;-72
2022/04/04 08:22:03;;;;;;;28.85;26.85;;;5.00;58.40;;;;;;5095545;28;20606;-72
2022/04/04 08:24:30;;;;;;;32.35;30.35;;;5.10;58.40;;;;;;5095331;28;20197;-72
2022/04/04 08:26:57;;;;;;;28.58;26.38;;;5.20;57.70;;;;;;5095363;28;20221;-71
2022/04/04 08:29:24;;;;;;;30.33;28.13;;;5.20;56.20;;;;;;5094871;28;20280;-71
2022/04/04 08:31:52;;;;;;;28.60;26.80;;;5.30;56.00;;;;;;5095348;28;20200;-71
2022/04/04 08:34:20;;;;;;;31.40;29.50;;;5.40;56.50;;;;;;5095358;28;20198;-71
2022/04/04 08:36:47;;;;;;;29.80;27.90;;;5.40;57.00;;;;;;5095758;28;20726;-71
2022/04/04 08:39:14;;;;;;;28.75;26.95;;;5.50;56.30;;;;;;5094517;28;20207;-71
2022/04/04 08:41:41;;;;;;;29.52;27.73;;;5.70;56.10;;;;;;5095413;28;20276;-72
2022/04/04 08:44:08;;;;;;;29.75;27.83;;;5.80;55.20;;;;;;5095093;28;20703;-72
2022/04/04 08:46:35;;;;;;;27.98;26.38;;;5.80;55.10;;;;;;5095115;28;20550;-71
2022/04/04 08:49:06;;;;;;;31.17;29.27;;;5.80;54.90;;;;;;5094011;28;20205;-71
2022/04/04 08:51:34;;;;;;;28.20;26.40;;;5.90;53.90;;;;;;5094567;28;20544;-72
2022/04/04 08:54:01;;;;;;;29.90;27.75;;;6.00;53.90;;;;;;5095080;28;20224;-71
2022/04/04 08:56:29;;;;;;;28.88;27.17;;;6.10;53.70;;;;;;5094789;28;20808;-71
2022/04/04 08:58:57;;;;;;;29.48;27.60;;;6.10;53.70;;;;;;5094777;28;20552;-71
2022/04/04 09:01:27;;;;;;;29.70;27.90;;;6.20;53.70;;;;;;5094345;28;20198;-71
2022/04/04 09:04:14;;;;;;;29.42;27.35;;;6.20;53.20;;;;;;5094422;28;20342;-72
2022/04/04 09:06:49;;;;;;;28.98;27.30;;;6.20;52.40;;;;;;5094767;28;20199;-71
2022/04/04 09:09:19;;;;;;;30.80;29.10;;;6.20;50.80;;;;;;5094005;28;20205;-71
2022/04/04 09:11:52;;;;;;;27.75;26.05;;;6.20;51.60;;;;;;5094697;28;20205;-71
2022/04/04 09:14:24;;;;;;;28.77;27.02;;;6.30;52.00;;;;;;5094471;28;20198;-71
2022/04/04 09:16:57;;;;;;;28.33;26.02;;;6.40;51.80;;;;;;5094446;28;20249;-71
2022/04/04 09:19:32;;;;;;;28.95;27.13;;;6.50;51.30;;;;;;5093775;28;20234;-71
2022/04/04 09:22:05;;;;;;;29.15;27.33;;;6.50;49.70;;;;;;5094360;28;20206;-71
2022/04/04 09:24:47;;;;;;;29.77;27.90;;;6.50;49.80;;;;;;5094378;28;20234;-71
2022/04/04 09:27:17;;;;;;;28.63;26.83;;;6.50;49.20;;;;;;5094154;28;20214;-71
2022/04/04 09:29:45;;;;;;;28.23;26.52;;;6.50;49.10;;;;;;5093787;28;20289;-71
2022/04/04 09:32:15;;;;;;;29.52;27.73;;;6.40;48.60;;;;;;5094274;28;20223;-71
2022/04/04 09:35:08;;;;;;;30.65;28.45;;;6.50;48.40;;;;;;5094316;28;20267;-71
2022/04/04 09:37:36;;;;;;;29.63;27.67;;;6.60;48.20;;;;;;5094098;28;20202;-71
2022/04/04 09:40:09;;;;;;;28.63;26.83;;;6.60;48.80;;;;;;5093404;28;20570;-71
2022/04/04 09:42:37;;;;;;;28.08;26.48;;;6.70;48.90;;;;;;5094129;28;20223;-71
2022/04/04 09:45:06;;;;;;;27.92;26.33;;;6.70;47.80;;;;;;5093994;28;20203;-71
2022/04/04 09:47:51;;;;;;;27.48;25.77;;;6.80;48.30;;;;;;5094028;28;20693;-71
2022/04/04 09:50:41;;;;;;;29.30;27.50;;;6.90;48.30;;;;;;5093471;28;20678;-71
2022/04/04 09:53:10;;;;;;;28.33;26.52;;;7.00;48.40;;;;;;5094590;28;20279;-71
2022/04/04 09:55:39;;;;;;;29.00;27.20;;;7.00;48.40;;;;;;5094352;28;20238;-71
2022/04/04 09:58:08;;;;;;;28.00;26.20;;;7.00;49.30;;;;;;5093707;28;20198;-71
2022/04/04 10:00:37;;;;;;;27.25;25.67;;;7.20;49.30;;;;;;5091957;28;20229;-72
2022/04/04 10:03:07;;;;;;;28.02;26.38;;;7.10;49.70;;;;;;5093638;28;20225;-71
2022/04/04 10:05:36;;;;;;;28.85;27.15;;;7.00;49.10;;;;;;5093197;28;20843;-72
2022/04/04 10:08:04;;;;;;;29.27;27.27;;;6.70;49.30;;;;;;5093680;28;20227;-71
2022/04/04 10:10:32;;;;;;;28.55;26.85;;;6.50;50.80;;;;;;5092935;28;20202;-72
2022/04/04 10:13:00;;;;;;;29.65;27.85;;;6.60;51.50;;;;;;5093265;28;20233;-71
2022/04/04 10:15:28;;;;;;;28.10;26.30;;;6.80;52.10;;;;;;5093384;28;20696;-71
2022/04/04 10:17:56;;;;;;;213.32;50.90;;;7.00;52.00;;;;;;5093217;28;20202;-72
2022/04/04 10:20:23;;;;;;;29.00;27.20;;;7.20;52.00;;;;;;5092657;28;20207;-71
2022/04/04 10:22:54;;;;;;;29.42;27.50;;;7.30;51.30;;;;;;5093088;28;20261;-72
2022/04/04 10:25:25;;;;;;;28.73;26.88;;;6.90;51.10;;;;;;5093259;28;20210;-71
2022/04/04 10:27:53;;;;;;;28.52;26.73;;;6.70;52.30;;;;;;5092990;28;20223;-71
2022/04/04 10:30:31;;;;;;;28.45;26.75;;;6.60;52.80;;;;;;5092632;28;20255;-71
2022/04/04 10:32:59;;;;;;;28.52;26.73;;;6.80;52.70;;;;;;5093170;28;20233;-71
2022/04/04 10:35:29;;;;;;;29.15;27.25;;;7.10;52.50;;;;;;5092896;28;20291;-71
2022/04/04 10:38:03;;;;;;;29.02;27.33;;;7.20;52.80;;;;;;5092678;28;20278;-71
2022/04/04 10:40:31;;;;;;;29.00;27.10;;;7.50;52.30;;;;;;5092581;28;20198;-71
2022/04/04 10:43:12;;;;;;;29.05;27.15;;;7.70;51.70;;;;;;5092914;28;20584;-71
2022/04/04 10:45:53;;;;;;;28.58;26.67;;;7.90;51.60;;;;;;5092907;28;20206;-71
2022/04/04 10:48:21;;;;;;;28.77;27.05;;;8.00;51.70;;;;;;5092547;28;20231;-71
2022/04/04 10:50:48;;;;;;;27.77;26.08;;;8.20;50.90;;;;;;5092331;28;20218;-71
2022/04/04 10:53:36;;;;;;;28.80;26.80;;;8.30;50.60;;;;;;5092526;28;20216;-71
2022/04/04 10:56:05;;;;;;;28.70;26.98;;;8.40;50.10;;;;;;5092570;28;20199;-71
2022/04/04 10:58:32;;;;;;;27.10;25.40;;;8.50;49.10;;;;;;5092357;28;20206;-71
2022/04/04 11:01:07;;;;;;;27.23;25.73;;;8.70;49.60;;;;;;5091984;28;20684;-71
2022/04/04 11:03:36;;;;;;;27.33;25.73;;;8.60;47.00;;;;;;5092136;28;20223;-71
2022/04/04 11:09:04;;;;;;;27.15;25.65;;;8.10;46.90;;;;;;5092151;28;20214;-71
2022/04/04 11:11:45;;;;;;;27.73;26.08;;;7.80;48.40;;;;;;5091953;28;20207;-71
2022/04/04 11:14:13;;;;;;;28.40;26.40;;;7.80;48.50;;;;;;5092392;28;20229;-71
2022/04/04 11:17:33;;;;;;;27.00;25.40;;;7.90;48.30;;;;;;5092533;28;20296;-71
2022/04/04 11:20:10;;;;;;;27.45;25.85;;;8.10;48.60;;;;;;5091670;28;20199;-71
2022/04/04 11:22:45;;;;;;;26.60;24.65;;;7.80;47.60;;;;;;5092668;28;20216;-71
2022/04/04 11:25:17;;;;;;;26.95;25.35;;;7.80;49.00;;;;;;5092282;28;20203;-71
2022/04/04 11:27:48;;;;;;;26.98;25.25;;;8.00;48.80;;;;;;5092182;28;20220;-71
2022/04/04 11:30:17;;;;;;;27.83;26.05;;;8.20;48.40;;;;;;5091710;28;20269;-71
2022/04/04 11:32:46;;;;;;;28.40;26.52;;;8.20;48.60;;;;;;5092436;28;20211;-71
2022/04/04 11:35:15;;;;;;;26.85;25.35;;;8.20;48.40;;;;;;5092308;28;20199;-72
2022/04/04 11:37:44;;;;;;;26.75;25.15;;;8.00;49.10;;;;;;5092280;28;20655;-71
2022/04/04 11:40:14;;;;;;;27.42;25.83;;;8.10;50.10;;;;;;5091348;28;20202;-71
2022/04/04 11:42:50;;;;;;;28.10;26.23;;;8.10;49.80;;;;;;5091975;28;20272;-71
2022/04/04 11:45:18;;;;;;;27.10;25.45;;;8.30;48.90;;;;;;5092161;28;20653;-71
2022/04/04 11:47:56;;;;;;;28.38;26.70;;;8.40;49.40;;;;;;5092058;28;20195;-72
2022/04/04 11:50:26;;;;;;;27.20;25.50;;;8.50;49.10;;;;;;5091343;28;20227;-71
2022/04/04 11:52:58;;;;;;;27.17;25.38;;;8.70;49.20;;;;;;5091968;28;20241;-71
2022/04/04 11:55:27;;;;;;;27.77;26.17;;;8.90;49.00;;;;;;5092190;28;20199;-71
2022/04/04 11:57:58;;;;;;;28.30;26.63;;;8.90;48.10;;;;;;5091910;28;20196;-71
2022/04/04 12:00:27;;;;;;;27.25;25.55;;;8.90;48.40;;;;;;5091588;28;20195;-72
2022/04/04 12:02:55;;;;;;;28.85;27.35;;;9.00;48.80;;;;;;5091822;28;20311;-72
2022/04/04 12:05:26;;;;;;;27.55;25.85;;;9.00;48.90;;;;;;5091516;28;20207;-71
2022/04/04 12:07:54;;;;;;;73.32;31.85;;;9.00;47.00;;;;;;5091826;28;20196;-71
2022/04/04 12:10:30;;;;;;;28.38;26.25;;;9.00;47.60;;;;;;5091292;28;20206;-72
2022/04/04 12:12:59;;;;;;;27.40;25.67;;;9.00;49.00;;;;;;5091828;28;20219;-72
2022/04/04 12:15:27;;;;;;;26.38;24.88;;;8.80;47.30;;;;;;5091920;28;20199;-72
2022/04/04 12:17:54;;;;;;;28.83;27.23;;;8.80;49.20;;;;;;5093107;28;20291;-72
2022/04/04 12:20:22;;;;;;;26.58;24.98;;;8.80;48.50;;;;;;5091262;28;20305;-72
2022/04/04 12:25:46;;;;;;;26.90;25.27;;;9.10;48.20;;;;;;5053052;28;20680;-71
2022/04/04 12:28:25;;;;;;;28.90;26.20;;;9.10;48.00;;;;;;5085173;28;20740;-72
2022/04/04 12:30:52;;;;;;;28.02;26.33;;;9.20;48.60;;;;;;5095336;28;20200;-72
2022/04/04 12:33:19;;;;;;;27.50;25.83;;;9.50;47.40;;;;;;5095529;28;20303;-72
2022/04/04 12:35:47;;;;;;;26.80;25.20;;;9.40;47.10;;;;;;5096268;28;20200;-72
2022/04/04 12:38:25;;;;;;;27.40;25.67;;;9.40;47.50;;;;;;5095453;28;20192;-71
2022/04/04 12:41:10;;;;;;;26.80;25.20;;;9.40;48.10;;;;;;5095518;28;20192;-72
2022/04/04 12:43:39;;;;;;;28.90;27.20;;;9.60;48.00;;;;;;5095786;28;20216;-72
2022/04/04 12:46:08;;;;;;;28.30;26.60;;;9.60;48.00;;;;;;5096017;28;20195;-71
2022/04/04 12:48:37;;;;;;;27.13;25.52;;;9.60;47.80;;;;;;5095272;28;20224;-71